sensor_id;sensor_type;location;lat;lon;timestamp;temperature;humidity
6792;DHT22;3433;48.730;9.108;2023-07-31T00:00:35;17.90;99.20
6792;DHT22;3433;48.730;9.108;2023-07-31T00:03:25;17.90;99.10
6792;DHT22;3433;48.730;9.108;2023-07-31T00:06:12;17.90;99.10
6792;DHT22;3433;48.730;9.108;2023-07-31T00:09:03;17.90;99.40
6792;DHT22;3433;48.730;9.108;2023-07-31T00:11:50;17.90;99.20
6792;DHT22;3433;48.730;9.108;2023-07-31T00:14:39;17.80;99.10
6792;DHT22;3433;48.730;9.108;2023-07-31T00:17:27;17.80;99.20
6792;DHT22;3433;48.730;9.108;2023-07-31T00:20:25;17.70;99.30
6792;DHT22;3433;48.730;9.108;2023-07-31T00:23:15;17.60;99.50
6792;DHT22;3433;48.730;9.108;2023-07-31T00:26:15;17.60;99.60
6792;DHT22;3433;48.730;9.108;2023-07-31T00:29:10;17.60;99.60
6792;DHT22;3433;48.730;9.108;2023-07-31T00:31:57;17.70;99.70
6792;DHT22;3433;48.730;9.108;2023-07-31T00:34:50;17.60;99.80
6792;DHT22;3433;48.730;9.108;2023-07-31T00:37:40;17.60;99.70
6792;DHT22;3433;48.730;9.108;2023-07-31T00:40:37;17.60;99.60
6792;DHT22;3433;48.730;9.108;2023-07-31T00:43:30;17.70;99.70
6792;DHT22;3433;48.730;9.108;2023-07-31T00:46:18;17.70;99.60
6792;DHT22;3433;48.730;9.108;2023-07-31T00:49:10;17.70;99.60
6792;DHT22;3433;48.730;9.108;2023-07-31T00:52:09;17.70;99.60
6792;DHT22;3433;48.730;9.108;2023-07-31T00:54:58;17.70;99.70
6792;DHT22;3433;48.730;9.108;2023-07-31T00:57:46;17.70;99.60
6792;DHT22;3433;48.730;9.108;2023-07-31T01:00:35;17.70;99.70
6792;DHT22;3433;48.730;9.108;2023-07-31T01:03:28;17.70;99.80
6792;DHT22;3433;48.730;9.108;2023-07-31T01:06:19;17.60;99.70
6792;DHT22;3433;48.730;9.108;2023-07-31T01:09:19;17.70;99.70
6792;DHT22;3433;48.730;9.108;2023-07-31T01:12:16;17.60;99.80
6792;DHT22;3433;48.730;9.108;2023-07-31T01:15:08;17.60;99.80
6792;DHT22;3433;48.730;9.108;2023-07-31T01:18:00;17.60;99.90
6792;DHT22;3433;48.730;9.108;2023-07-31T01:20:54;17.60;99.70
6792;DHT22;3433;48.730;9.108;2023-07-31T01:24:06;17.60;99.80
6792;DHT22;3433;48.730;9.108;2023-07-31T01:27:07;17.70;99.80
6792;DHT22;3433;48.730;9.108;2023-07-31T01:30:03;17.70;99.80
6792;DHT22;3433;48.730;9.108;2023-07-31T01:32:57;17.70;99.70
6792;DHT22;3433;48.730;9.108;2023-07-31T01:35:52;17.60;99.80
6792;DHT22;3433;48.730;9.108;2023-07-31T01:38:41;17.70;99.90
6792;DHT22;3433;48.730;9.108;2023-07-31T01:41:30;17.70;99.70
6792;DHT22;3433;48.730;9.108;2023-07-31T01:44:28;17.70;99.80
6792;DHT22;3433;48.730;9.108;2023-07-31T01:47:16;17.70;99.90
6792;DHT22;3433;48.730;9.108;2023-07-31T01:50:08;17.70;99.80
6792;DHT22;3433;48.730;9.108;2023-07-31T01:53:01;17.70;99.90
6792;DHT22;3433;48.730;9.108;2023-07-31T01:56:05;17.70;99.90
6792;DHT22;3433;48.730;9.108;2023-07-31T01:58:52;17.70;99.80
6792;DHT22;3433;48.730;9.108;2023-07-31T02:01:44;17.70;99.90
6792;DHT22;3433;48.730;9.108;2023-07-31T02:04:34;17.70;99.90
6792;DHT22;3433;48.730;9.108;2023-07-31T02:07:23;17.60;99.90
6792;DHT22;3433;48.730;9.108;2023-07-31T02:10:11;17.60;99.90
6792;DHT22;3433;48.730;9.108;2023-07-31T02:13:01;17.60;99.90
6792;DHT22;3433;48.730;9.108;2023-07-31T02:15:49;17.60;99.90
6792;DHT22;3433;48.730;9.108;2023-07-31T02:18:39;17.60;99.90
6792;DHT22;3433;48.730;9.108;2023-07-31T02:21:29;17.60;99.90
6792;DHT22;3433;48.730;9.108;2023-07-31T02:24:25;17.60;99.90
6792;DHT22;3433;48.730;9.108;2023-07-31T02:27:15;17.60;99.90
6792;DHT22;3433;48.730;9.108;2023-07-31T02:30:03;17.60;99.90
6792;DHT22;3433;48.730;9.108;2023-07-31T02:32:51;17.60;99.90
6792;DHT22;3433;48.730;9.108;2023-07-31T02:35:41;17.50;99.90
6792;DHT22;3433;48.730;9.108;2023-07-31T02:38:28;17.50;99.90
6792;DHT22;3433;48.730;9.108;2023-07-31T02:41:21;17.50;99.90
6792;DHT22;3433;48.730;9.108;2023-07-31T02:44:09;17.50;99.90
6792;DHT22;3433;48.730;9.108;2023-07-31T02:47:03;17.50;99.90
6792;DHT22;3433;48.730;9.108;2023-07-31T02:50:08;17.50;99.90
6792;DHT22;3433;48.730;9.108;2023-07-31T02:53:00;17.50;99.90
6792;DHT22;3433;48.730;9.108;2023-07-31T02:55:53;17.40;99.90
6792;DHT22;3433;48.730;9.108;2023-07-31T02:58:40;17.40;99.90
6792;DHT22;3433;48.730;9.108;2023-07-31T03:01:27;17.40;99.90
6792;DHT22;3433;48.730;9.108;2023-07-31T03:04:15;17.40;99.90
6792;DHT22;3433;48.730;9.108;2023-07-31T03:07:05;17.40;99.90
6792;DHT22;3433;48.730;9.108;2023-07-31T03:09:54;17.40;99.90
6792;DHT22;3433;48.730;9.108;2023-07-31T03:12:41;17.40;99.90
6792;DHT22;3433;48.730;9.108;2023-07-31T03:15:38;17.30;99.90
6792;DHT22;3433;48.730;9.108;2023-07-31T03:18:25;17.30;99.90
6792;DHT22;3433;48.730;9.108;2023-07-31T03:21:14;17.30;99.90
6792;DHT22;3433;48.730;9.108;2023-07-31T03:24:06;17.30;99.90
6792;DHT22;3433;48.730;9.108;2023-07-31T03:26:55;17.30;99.90
6792;DHT22;3433;48.730;9.108;2023-07-31T03:29:42;17.30;99.90
6792;DHT22;3433;48.730;9.108;2023-07-31T03:32:30;17.30;99.90
6792;DHT22;3433;48.730;9.108;2023-07-31T03:35:31;17.20;99.90
6792;DHT22;3433;48.730;9.108;2023-07-31T03:38:19;17.30;99.90
6792;DHT22;3433;48.730;9.108;2023-07-31T03:41:10;17.30;99.90
6792;DHT22;3433;48.730;9.108;2023-07-31T03:44:02;17.30;99.90
6792;DHT22;3433;48.730;9.108;2023-07-31T03:46:52;17.20;99.90
6792;DHT22;3433;48.730;9.108;2023-07-31T03:49:41;17.30;99.90
6792;DHT22;3433;48.730;9.108;2023-07-31T03:52:29;17.30;99.90
6792;DHT22;3433;48.730;9.108;2023-07-31T03:55:22;17.30;99.90
6792;DHT22;3433;48.730;9.108;2023-07-31T03:58:15;17.30;99.90
6792;DHT22;3433;48.730;9.108;2023-07-31T04:01:04;17.30;99.90
6792;DHT22;3433;48.730;9.108;2023-07-31T04:03:52;17.40;99.90
6792;DHT22;3433;48.730;9.108;2023-07-31T04:06:45;17.40;99.90
6792;DHT22;3433;48.730;9.108;2023-07-31T04:09:33;17.40;99.90
6792;DHT22;3433;48.730;9.108;2023-07-31T04:12:25;17.40;99.90
6792;DHT22;3433;48.730;9.108;2023-07-31T04:15:15;17.40;99.90
6792;DHT22;3433;48.730;9.108;2023-07-31T04:18:06;17.30;99.90
6792;DHT22;3433;48.730;9.108;2023-07-31T04:20:54;17.40;99.90
6792;DHT22;3433;48.730;9.108;2023-07-31T04:23:41;17.40;99.90
6792;DHT22;3433;48.730;9.108;2023-07-31T04:26:32;17.50;99.90
6792;DHT22;3433;48.730;9.108;2023-07-31T04:29:25;17.50;99.90
6792;DHT22;3433;48.730;9.108;2023-07-31T04:32:16;17.50;99.90
6792;DHT22;3433;48.730;9.108;2023-07-31T04:35:07;17.50;99.90
6792;DHT22;3433;48.730;9.108;2023-07-31T04:38:02;17.50;99.90
6792;DHT22;3433;48.730;9.108;2023-07-31T04:40:50;17.60;99.90
6792;DHT22;3433;48.730;9.108;2023-07-31T04:43:39;17.60;99.90
6792;DHT22;3433;48.730;9.108;2023-07-31T04:46:27;17.60;99.90
6792;DHT22;3433;48.730;9.108;2023-07-31T04:49:14;17.70;99.90
6792;DHT22;3433;48.730;9.108;2023-07-31T04:52:05;17.70;99.90
6792;DHT22;3433;48.730;9.108;2023-07-31T04:54:53;17.70;99.90
6792;DHT22;3433;48.730;9.108;2023-07-31T04:57:40;17.70;99.90
6792;DHT22;3433;48.730;9.108;2023-07-31T05:00:37;17.70;99.90
6792;DHT22;3433;48.730;9.108;2023-07-31T05:03:29;17.70;99.90
6792;DHT22;3433;48.730;9.108;2023-07-31T05:06:22;17.70;99.90
6792;DHT22;3433;48.730;9.108;2023-07-31T05:09:14;17.70;99.90
6792;DHT22;3433;48.730;9.108;2023-07-31T05:12:05;17.80;99.90
6792;DHT22;3433;48.730;9.108;2023-07-31T05:14:56;17.80;99.90
6792;DHT22;3433;48.730;9.108;2023-07-31T05:17:52;17.80;99.90
6792;DHT22;3433;48.730;9.108;2023-07-31T05:20:45;17.80;99.90
6792;DHT22;3433;48.730;9.108;2023-07-31T05:23:39;17.80;99.90
6792;DHT22;3433;48.730;9.108;2023-07-31T05:26:29;17.90;99.90
6792;DHT22;3433;48.730;9.108;2023-07-31T05:29:16;17.80;99.90
6792;DHT22;3433;48.730;9.108;2023-07-31T05:32:07;17.80;99.90
6792;DHT22;3433;48.730;9.108;2023-07-31T05:34:55;17.90;99.90
6792;DHT22;3433;48.730;9.108;2023-07-31T05:37:49;18.00;99.90
6792;DHT22;3433;48.730;9.108;2023-07-31T05:40:43;18.00;99.90
6792;DHT22;3433;48.730;9.108;2023-07-31T05:43:42;18.00;99.90
6792;DHT22;3433;48.730;9.108;2023-07-31T05:46:30;18.10;99.90
6792;DHT22;3433;48.730;9.108;2023-07-31T05:49:18;18.30;99.90
6792;DHT22;3433;48.730;9.108;2023-07-31T05:52:06;18.30;99.90
6792;DHT22;3433;48.730;9.108;2023-07-31T05:55:00;18.30;99.90
6792;DHT22;3433;48.730;9.108;2023-07-31T05:57:49;18.40;99.90
6792;DHT22;3433;48.730;9.108;2023-07-31T06:00:45;18.40;99.90
6792;DHT22;3433;48.730;9.108;2023-07-31T06:03:35;18.30;99.90
6792;DHT22;3433;48.730;9.108;2023-07-31T06:06:23;18.40;99.90
6792;DHT22;3433;48.730;9.108;2023-07-31T06:09:10;18.50;99.90
6792;DHT22;3433;48.730;9.108;2023-07-31T06:12:00;18.60;99.90
6792;DHT22;3433;48.730;9.108;2023-07-31T06:14:53;18.60;99.90
6792;DHT22;3433;48.730;9.108;2023-07-31T06:17:48;18.60;99.90
6792;DHT22;3433;48.730;9.108;2023-07-31T06:20:38;18.70;99.90
6792;DHT22;3433;48.730;9.108;2023-07-31T06:23:29;18.70;99.90
6792;DHT22;3433;48.730;9.108;2023-07-31T06:26:18;18.70;99.90
6792;DHT22;3433;48.730;9.108;2023-07-31T06:29:07;18.80;99.90
6792;DHT22;3433;48.730;9.108;2023-07-31T06:32:03;18.90;99.90
6792;DHT22;3433;48.730;9.108;2023-07-31T06:35:14;18.90;99.90
6792;DHT22;3433;48.730;9.108;2023-07-31T06:38:02;19.00;99.90
6792;DHT22;3433;48.730;9.108;2023-07-31T06:40:52;19.00;99.90
6792;DHT22;3433;48.730;9.108;2023-07-31T06:43:46;19.10;99.90
6792;DHT22;3433;48.730;9.108;2023-07-31T06:46:36;19.20;99.90
6792;DHT22;3433;48.730;9.108;2023-07-31T06:49:28;19.30;99.90
6792;DHT22;3433;48.730;9.108;2023-07-31T06:53:05;19.30;99.90
6792;DHT22;3433;48.730;9.108;2023-07-31T06:55:32;19.50;99.90
6792;DHT22;3433;48.730;9.108;2023-07-31T06:58:22;19.60;99.90
6792;DHT22;3433;48.730;9.108;2023-07-31T07:01:23;19.60;99.90
6792;DHT22;3433;48.730;9.108;2023-07-31T07:04:14;19.70;99.90
6792;DHT22;3433;48.730;9.108;2023-07-31T07:07:05;19.70;99.90
6792;DHT22;3433;48.730;9.108;2023-07-31T07:09:54;19.90;99.90
6792;DHT22;3433;48.730;9.108;2023-07-31T07:12:41;19.90;99.90
6792;DHT22;3433;48.730;9.108;2023-07-31T07:15:29;20.00;99.90
6792;DHT22;3433;48.730;9.108;2023-07-31T07:18:19;20.00;99.80
6792;DHT22;3433;48.730;9.108;2023-07-31T07:21:07;20.10;99.60
6792;DHT22;3433;48.730;9.108;2023-07-31T07:24:19;20.20;99.80
6792;DHT22;3433;48.730;9.108;2023-07-31T07:27:24;20.10;99.40
6792;DHT22;3433;48.730;9.108;2023-07-31T07:30:14;20.30;99.90
6792;DHT22;3433;48.730;9.108;2023-07-31T07:33:05;20.30;99.50
6792;DHT22;3433;48.730;9.108;2023-07-31T07:35:53;20.20;99.60
6792;DHT22;3433;48.730;9.108;2023-07-31T07:38:45;20.30;99.50
6792;DHT22;3433;48.730;9.108;2023-07-31T07:41:35;20.30;99.70
6792;DHT22;3433;48.730;9.108;2023-07-31T07:44:27;20.30;99.50
6792;DHT22;3433;48.730;9.108;2023-07-31T07:47:18;20.40;99.90
6792;DHT22;3433;48.730;9.108;2023-07-31T07:50:06;20.50;99.80
6792;DHT22;3433;48.730;9.108;2023-07-31T07:53:03;20.60;99.00
6792;DHT22;3433;48.730;9.108;2023-07-31T07:55:59;20.60;98.90
6792;DHT22;3433;48.730;9.108;2023-07-31T07:58:52;20.80;99.00
6792;DHT22;3433;48.730;9.108;2023-07-31T08:01:45;21.00;98.40
6792;DHT22;3433;48.730;9.108;2023-07-31T08:05:05;21.00;98.20
6792;DHT22;3433;48.730;9.108;2023-07-31T08:08:04;20.90;97.50
6792;DHT22;3433;48.730;9.108;2023-07-31T08:11:07;20.90;97.80
6792;DHT22;3433;48.730;9.108;2023-07-31T08:14:12;21.20;98.30
6792;DHT22;3433;48.730;9.108;2023-07-31T08:17:31;21.20;98.30
6792;DHT22;3433;48.730;9.108;2023-07-31T08:20:39;21.40;98.30
6792;DHT22;3433;48.730;9.108;2023-07-31T08:23:26;21.60;98.50
6792;DHT22;3433;48.730;9.108;2023-07-31T08:26:22;21.60;97.70
6792;DHT22;3433;48.730;9.108;2023-07-31T08:29:15;21.70;97.70
6792;DHT22;3433;48.730;9.108;2023-07-31T08:32:04;21.80;96.90
6792;DHT22;3433;48.730;9.108;2023-07-31T08:35:03;21.90;98.10
6792;DHT22;3433;48.730;9.108;2023-07-31T08:37:58;22.10;98.20
6792;DHT22;3433;48.730;9.108;2023-07-31T08:40:54;22.20;97.70
6792;DHT22;3433;48.730;9.108;2023-07-31T08:43:46;22.40;97.80
6792;DHT22;3433;48.730;9.108;2023-07-31T08:46:34;22.60;98.10
6792;DHT22;3433;48.730;9.108;2023-07-31T08:49:22;22.70;97.10
6792;DHT22;3433;48.730;9.108;2023-07-31T08:52:11;22.60;97.90
6792;DHT22;3433;48.730;9.108;2023-07-31T08:54:59;22.80;98.10
6792;DHT22;3433;48.730;9.108;2023-07-31T08:57:46;22.70;97.80
6792;DHT22;3433;48.730;9.108;2023-07-31T09:00:34;22.80;97.80
6792;DHT22;3433;48.730;9.108;2023-07-31T09:03:26;22.60;97.50
6792;DHT22;3433;48.730;9.108;2023-07-31T09:06:13;22.70;97.60
6792;DHT22;3433;48.730;9.108;2023-07-31T09:09:03;22.60;96.90
6792;DHT22;3433;48.730;9.108;2023-07-31T09:11:51;22.50;97.70
6792;DHT22;3433;48.730;9.108;2023-07-31T09:14:39;22.60;97.20
6792;DHT22;3433;48.730;9.108;2023-07-31T09:17:31;22.60;97.40
6792;DHT22;3433;48.730;9.108;2023-07-31T09:20:22;22.50;97.80
6792;DHT22;3433;48.730;9.108;2023-07-31T09:23:11;22.50;97.40
6792;DHT22;3433;48.730;9.108;2023-07-31T09:25:59;22.50;97.40
6792;DHT22;3433;48.730;9.108;2023-07-31T09:28:47;22.40;97.10
6792;DHT22;3433;48.730;9.108;2023-07-31T09:31:43;22.30;97.60
6792;DHT22;3433;48.730;9.108;2023-07-31T09:34:38;22.30;98.00
6792;DHT22;3433;48.730;9.108;2023-07-31T09:37:31;22.30;97.20
6792;DHT22;3433;48.730;9.108;2023-07-31T09:40:26;22.20;97.50
6792;DHT22;3433;48.730;9.108;2023-07-31T09:43:42;22.10;96.60
6792;DHT22;3433;48.730;9.108;2023-07-31T09:46:43;22.00;97.00
6792;DHT22;3433;48.730;9.108;2023-07-31T09:49:33;22.40;96.70
6792;DHT22;3433;48.730;9.108;2023-07-31T09:52:30;22.40;96.30
6792;DHT22;3433;48.730;9.108;2023-07-31T09:55:18;22.60;96.60
6792;DHT22;3433;48.730;9.108;2023-07-31T09:58:11;22.60;96.50
6792;DHT22;3433;48.730;9.108;2023-07-31T10:01:06;22.60;96.30
6792;DHT22;3433;48.730;9.108;2023-07-31T10:03:59;22.70;97.20
6792;DHT22;3433;48.730;9.108;2023-07-31T10:07:27;22.70;96.30
6792;DHT22;3433;48.730;9.108;2023-07-31T10:10:08;22.90;96.70
6792;DHT22;3433;48.730;9.108;2023-07-31T10:13:01;23.00;96.00
6792;DHT22;3433;48.730;9.108;2023-07-31T10:15:51;23.10;96.20
6792;DHT22;3433;48.730;9.108;2023-07-31T10:18:49;23.20;96.00
6792;DHT22;3433;48.730;9.108;2023-07-31T10:22:01;23.30;95.60
6792;DHT22;3433;48.730;9.108;2023-07-31T10:25:20;23.40;95.90
6792;DHT22;3433;48.730;9.108;2023-07-31T10:28:20;23.70;95.70
6792;DHT22;3433;48.730;9.108;2023-07-31T10:31:39;23.70;95.30
6792;DHT22;3433;48.730;9.108;2023-07-31T10:38:29;23.70;95.60
6792;DHT22;3433;48.730;9.108;2023-07-31T10:45:35;23.60;95.70
6792;DHT22;3433;48.730;9.108;2023-07-31T10:48:41;23.50;95.20
6792;DHT22;3433;48.730;9.108;2023-07-31T10:55:40;23.50;94.70
6792;DHT22;3433;48.730;9.108;2023-07-31T11:11:52;23.80;94.80
6792;DHT22;3433;48.730;9.108;2023-07-31T11:14:54;24.00;94.30
6792;DHT22;3433;48.730;9.108;2023-07-31T11:21:50;23.70;94.40
6792;DHT22;3433;48.730;9.108;2023-07-31T11:28:39;23.60;95.20
6792;DHT22;3433;48.730;9.108;2023-07-31T11:31:36;23.40;94.70
6792;DHT22;3433;48.730;9.108;2023-07-31T11:41:46;23.40;95.30
6792;DHT22;3433;48.730;9.108;2023-07-31T11:52:08;23.40;95.30
6792;DHT22;3433;48.730;9.108;2023-07-31T11:58:29;23.20;96.10
6792;DHT22;3433;48.730;9.108;2023-07-31T12:01:42;23.20;96.20
6792;DHT22;3433;48.730;9.108;2023-07-31T12:04:50;23.20;95.70
6792;DHT22;3433;48.730;9.108;2023-07-31T12:08:03;23.20;96.20
6792;DHT22;3433;48.730;9.108;2023-07-31T12:11:21;23.20;96.00
6792;DHT22;3433;48.730;9.108;2023-07-31T12:14:54;23.20;95.90
6792;DHT22;3433;48.730;9.108;2023-07-31T12:21:57;23.20;96.00
6792;DHT22;3433;48.730;9.108;2023-07-31T12:25:15;23.10;96.00
6792;DHT22;3433;48.730;9.108;2023-07-31T12:28:13;23.10;95.30
6792;DHT22;3433;48.730;9.108;2023-07-31T12:31:08;23.00;95.20
6792;DHT22;3433;48.730;9.108;2023-07-31T12:41:47;22.90;96.10
6792;DHT22;3433;48.730;9.108;2023-07-31T12:45:01;22.80;95.70
6792;DHT22;3433;48.730;9.108;2023-07-31T12:48:07;22.70;95.90
6792;DHT22;3433;48.730;9.108;2023-07-31T12:51:32;22.80;96.00
6792;DHT22;3433;48.730;9.108;2023-07-31T12:58:36;22.90;96.70
6792;DHT22;3433;48.730;9.108;2023-07-31T13:01:43;23.00;96.60
6792;DHT22;3433;48.730;9.108;2023-07-31T13:08:33;23.20;96.30
6792;DHT22;3433;48.730;9.108;2023-07-31T13:11:35;23.30;96.10
6792;DHT22;3433;48.730;9.108;2023-07-31T13:14:37;23.60;96.40
6792;DHT22;3433;48.730;9.108;2023-07-31T13:17:29;23.70;96.30
6792;DHT22;3433;48.730;9.108;2023-07-31T13:20:21;23.80;95.70
6792;DHT22;3433;48.730;9.108;2023-07-31T13:24:01;23.90;95.50
6792;DHT22;3433;48.730;9.108;2023-07-31T13:27:01;24.10;95.20
6792;DHT22;3433;48.730;9.108;2023-07-31T13:30:19;23.90;95.10
6792;DHT22;3433;48.730;9.108;2023-07-31T13:33:29;23.90;95.50
6792;DHT22;3433;48.730;9.108;2023-07-31T13:37:03;23.80;95.70
6792;DHT22;3433;48.730;9.108;2023-07-31T13:39:46;23.80;95.90
6792;DHT22;3433;48.730;9.108;2023-07-31T13:43:04;23.70;95.30
6792;DHT22;3433;48.730;9.108;2023-07-31T13:50:07;23.70;96.30
6792;DHT22;3433;48.730;9.108;2023-07-31T13:53:19;23.70;95.80
6792;DHT22;3433;48.730;9.108;2023-07-31T13:56:23;23.70;95.80
6792;DHT22;3433;48.730;9.108;2023-07-31T13:59:46;23.70;96.20
6792;DHT22;3433;48.730;9.108;2023-07-31T14:09:17;23.50;96.20
6792;DHT22;3433;48.730;9.108;2023-07-31T14:12:20;23.60;96.40
6792;DHT22;3433;48.730;9.108;2023-07-31T14:15:24;23.60;96.70
6792;DHT22;3433;48.730;9.108;2023-07-31T14:18:37;23.60;96.70
6792;DHT22;3433;48.730;9.108;2023-07-31T14:21:41;23.50;96.10
6792;DHT22;3433;48.730;9.108;2023-07-31T14:24:46;23.40;96.40
6792;DHT22;3433;48.730;9.108;2023-07-31T14:28:20;23.40;96.30
6792;DHT22;3433;48.730;9.108;2023-07-31T14:31:15;23.40;96.50
6792;DHT22;3433;48.730;9.108;2023-07-31T14:34:31;23.40;96.60
6792;DHT22;3433;48.730;9.108;2023-07-31T14:37:36;23.50;96.90
6792;DHT22;3433;48.730;9.108;2023-07-31T14:40:25;23.50;96.20
6792;DHT22;3433;48.730;9.108;2023-07-31T14:43:20;23.60;96.40
6792;DHT22;3433;48.730;9.108;2023-07-31T14:46:31;23.70;95.50
6792;DHT22;3433;48.730;9.108;2023-07-31T14:49:33;23.70;95.40
6792;DHT22;3433;48.730;9.108;2023-07-31T14:52:23;23.90;95.40
6792;DHT22;3433;48.730;9.108;2023-07-31T15:43:38;24.50;95.40
6792;DHT22;3433;48.730;9.108;2023-07-31T15:46:28;24.60;95.20
6792;DHT22;3433;48.730;9.108;2023-07-31T15:49:33;24.60;94.40
6792;DHT22;3433;48.730;9.108;2023-07-31T15:55:45;24.60;95.10
6792;DHT22;3433;48.730;9.108;2023-07-31T16:02:28;24.70;95.00
6792;DHT22;3433;48.730;9.108;2023-07-31T16:05:51;24.80;94.10
6792;DHT22;3433;48.730;9.108;2023-07-31T16:27:28;24.50;93.50
6792;DHT22;3433;48.730;9.108;2023-07-31T16:33:42;24.40;94.40
6792;DHT22;3433;48.730;9.108;2023-07-31T16:40:24;24.10;94.30
6792;DHT22;3433;48.730;9.108;2023-07-31T16:43:29;24.10;94.80
6792;DHT22;3433;48.730;9.108;2023-07-31T16:46:21;24.00;94.90
6792;DHT22;3433;48.730;9.108;2023-07-31T16:49:08;24.00;95.50
6792;DHT22;3433;48.730;9.108;2023-07-31T16:51:56;23.90;95.50
6792;DHT22;3433;48.730;9.108;2023-07-31T16:54:44;23.90;95.70
6792;DHT22;3433;48.730;9.108;2023-07-31T16:57:31;23.90;95.40
6792;DHT22;3433;48.730;9.108;2023-07-31T17:00:20;23.80;95.50
6792;DHT22;3433;48.730;9.108;2023-07-31T17:03:07;23.80;95.70
6792;DHT22;3433;48.730;9.108;2023-07-31T17:05:54;23.70;95.90
6792;DHT22;3433;48.730;9.108;2023-07-31T17:08:44;23.70;96.00
6792;DHT22;3433;48.730;9.108;2023-07-31T17:11:31;23.60;96.20
6792;DHT22;3433;48.730;9.108;2023-07-31T17:14:21;23.60;96.00
6792;DHT22;3433;48.730;9.108;2023-07-31T17:20:41;23.40;95.70
6792;DHT22;3433;48.730;9.108;2023-07-31T17:23:53;23.40;95.70
6792;DHT22;3433;48.730;9.108;2023-07-31T17:27:12;23.40;96.10
6792;DHT22;3433;48.730;9.108;2023-07-31T17:31:24;23.30;96.10
6792;DHT22;3433;48.730;9.108;2023-07-31T17:33:50;23.30;96.20
6792;DHT22;3433;48.730;9.108;2023-07-31T17:40:53;23.20;96.20
6792;DHT22;3433;48.730;9.108;2023-07-31T17:44:33;23.10;96.20
6792;DHT22;3433;48.730;9.108;2023-07-31T17:50:40;23.10;96.30
6792;DHT22;3433;48.730;9.108;2023-07-31T17:53:29;23.00;96.30
6792;DHT22;3433;48.730;9.108;2023-07-31T17:56:35;23.00;96.40
6792;DHT22;3433;48.730;9.108;2023-07-31T17:59:31;23.00;96.50
6792;DHT22;3433;48.730;9.108;2023-07-31T18:09:30;22.90;96.60
6792;DHT22;3433;48.730;9.108;2023-07-31T18:18:40;22.80;97.00
6792;DHT22;3433;48.730;9.108;2023-07-31T18:21:27;22.80;97.00
6792;DHT22;3433;48.730;9.108;2023-07-31T18:24:18;22.80;97.00
6792;DHT22;3433;48.730;9.108;2023-07-31T18:27:05;22.70;97.00
6792;DHT22;3433;48.730;9.108;2023-07-31T18:29:52;22.70;97.10
6792;DHT22;3433;48.730;9.108;2023-07-31T18:32:40;22.70;97.10
6792;DHT22;3433;48.730;9.108;2023-07-31T18:35:28;22.60;97.10
6792;DHT22;3433;48.730;9.108;2023-07-31T18:38:16;22.60;97.20
6792;DHT22;3433;48.730;9.108;2023-07-31T18:41:05;22.50;97.30
6792;DHT22;3433;48.730;9.108;2023-07-31T18:43:53;22.50;97.50
6792;DHT22;3433;48.730;9.108;2023-07-31T18:46:40;22.40;97.90
6792;DHT22;3433;48.730;9.108;2023-07-31T18:49:27;22.40;97.80
6792;DHT22;3433;48.730;9.108;2023-07-31T18:52:16;22.50;98.50
6792;DHT22;3433;48.730;9.108;2023-07-31T18:55:04;22.50;98.40
6792;DHT22;3433;48.730;9.108;2023-07-31T18:57:52;22.40;98.60
6792;DHT22;3433;48.730;9.108;2023-07-31T19:00:39;22.30;99.10
6792;DHT22;3433;48.730;9.108;2023-07-31T19:03:26;22.20;99.00
6792;DHT22;3433;48.730;9.108;2023-07-31T19:06:14;22.10;99.30
6792;DHT22;3433;48.730;9.108;2023-07-31T19:09:03;22.00;99.60
6792;DHT22;3433;48.730;9.108;2023-07-31T19:11:50;21.90;99.70
6792;DHT22;3433;48.730;9.108;2023-07-31T19:14:38;21.90;99.50
6792;DHT22;3433;48.730;9.108;2023-07-31T19:17:25;21.80;99.90
6792;DHT22;3433;48.730;9.108;2023-07-31T19:20:14;21.70;99.90
6792;DHT22;3433;48.730;9.108;2023-07-31T19:27:46;21.60;99.60
6792;DHT22;3433;48.730;9.108;2023-07-31T19:34:34;21.50;99.90
6792;DHT22;3433;48.730;9.108;2023-07-31T20:04:04;20.90;99.90
6792;DHT22;3433;48.730;9.108;2023-07-31T20:11:00;20.70;99.90
6792;DHT22;3433;48.730;9.108;2023-07-31T20:28:08;20.60;99.90
6792;DHT22;3433;48.730;9.108;2023-07-31T20:31:04;20.50;99.90
6792;DHT22;3433;48.730;9.108;2023-07-31T20:33:54;20.50;99.90
6792;DHT22;3433;48.730;9.108;2023-07-31T20:41:59;20.50;99.90
6792;DHT22;3433;48.730;9.108;2023-07-31T21:06:06;20.30;99.90
6792;DHT22;3433;48.730;9.108;2023-07-31T21:09:30;20.30;99.90
6792;DHT22;3433;48.730;9.108;2023-07-31T21:15:12;20.20;99.90
6792;DHT22;3433;48.730;9.108;2023-07-31T21:18:20;20.20;99.90
6792;DHT22;3433;48.730;9.108;2023-07-31T21:25:16;20.10;99.90
6792;DHT22;3433;48.730;9.108;2023-07-31T21:31:59;20.20;99.90
6792;DHT22;3433;48.730;9.108;2023-07-31T22:07:17;20.10;99.90
6792;DHT22;3433;48.730;9.108;2023-07-31T22:13:49;20.00;99.90
6792;DHT22;3433;48.730;9.108;2023-07-31T22:16:41;20.00;99.90
6792;DHT22;3433;48.730;9.108;2023-07-31T22:19:31;20.10;99.90
6792;DHT22;3433;48.730;9.108;2023-07-31T22:22:23;20.00;99.90
6792;DHT22;3433;48.730;9.108;2023-07-31T22:25:11;20.00;99.90
6792;DHT22;3433;48.730;9.108;2023-07-31T22:28:03;20.00;99.90
6792;DHT22;3433;48.730;9.108;2023-07-31T22:30:58;20.00;99.90
6792;DHT22;3433;48.730;9.108;2023-07-31T22:33:50;20.00;99.90
6792;DHT22;3433;48.730;9.108;2023-07-31T22:37:01;20.00;99.90
6792;DHT22;3433;48.730;9.108;2023-07-31T22:39:57;19.90;99.90
6792;DHT22;3433;48.730;9.108;2023-07-31T22:42:49;19.90;99.90
6792;DHT22;3433;48.730;9.108;2023-07-31T22:45:37;19.90;99.90
6792;DHT22;3433;48.730;9.108;2023-07-31T22:48:28;19.70;99.90
6792;DHT22;3433;48.730;9.108;2023-07-31T22:51:15;19.80;99.90
6792;DHT22;3433;48.730;9.108;2023-07-31T22:54:12;19.70;99.90
6792;DHT22;3433;48.730;9.108;2023-07-31T22:57:01;19.70;99.90
6792;DHT22;3433;48.730;9.108;2023-07-31T22:59:55;19.70;99.90
6792;DHT22;3433;48.730;9.108;2023-07-31T23:02:47;19.60;99.90
6792;DHT22;3433;48.730;9.108;2023-07-31T23:05:40;19.60;99.90
6792;DHT22;3433;48.730;9.108;2023-07-31T23:08:31;19.60;99.90
6792;DHT22;3433;48.730;9.108;2023-07-31T23:11:18;19.60;99.90
6792;DHT22;3433;48.730;9.108;2023-07-31T23:14:13;19.60;99.90
6792;DHT22;3433;48.730;9.108;2023-07-31T23:17:08;19.40;99.90
6792;DHT22;3433;48.730;9.108;2023-07-31T23:20:03;19.50;99.90
6792;DHT22;3433;48.730;9.108;2023-07-31T23:23:03;19.40;99.90
6792;DHT22;3433;48.730;9.108;2023-07-31T23:28:57;19.50;99.90
6792;DHT22;3433;48.730;9.108;2023-07-31T23:32:01;19.60;99.90
6792;DHT22;3433;48.730;9.108;2023-07-31T23:35:00;19.50;99.90
6792;DHT22;3433;48.730;9.108;2023-07-31T23:37:55;19.50;99.90
6792;DHT22;3433;48.730;9.108;2023-07-31T23:40:55;19.50;99.90
6792;DHT22;3433;48.730;9.108;2023-07-31T23:43:48;19.40;99.90
6792;DHT22;3433;48.730;9.108;2023-07-31T23:46:39;19.50;99.90
6792;DHT22;3433;48.730;9.108;2023-07-31T23:49:44;19.50;99.90
6792;DHT22;3433;48.730;9.108;2023-07-31T23:52:38;19.50;99.90
6792;DHT22;3433;48.730;9.108;2023-07-31T23:55:37;19.50;99.90
6792;DHT22;3433;48.730;9.108;2023-07-31T23:58:27;19.40;99.90
